createdAt,value
2023-01-11T00:00:40.925Z,100880.45
2023-01-11T00:03:07.811Z,100873.86
2023-01-11T00:05:40.524Z,100874.79
2023-01-11T00:08:07.553Z,100880.69
2023-01-11T00:10:34.463Z,100884.69
2023-01-11T00:13:01.689Z,100886.11
2023-01-11T00:15:28.618Z,100899.36
2023-01-11T00:17:55.842Z,100890.61
2023-01-11T00:20:22.724Z,100886.22
2023-01-11T00:22:49.693Z,100881.64
2023-01-11T00:25:16.646Z,100874.50
2023-01-11T00:27:43.623Z,100872.16
2023-01-11T00:30:11.380Z,100870.53
2023-01-11T00:32:38.201Z,100872.91
2023-01-11T00:35:05.380Z,100879.44
2023-01-11T00:37:32.180Z,100877.40
2023-01-11T00:39:58.990Z,100880.18
2023-01-11T00:42:44.515Z,100882.45
2023-01-11T00:45:43.724Z,100891.27
2023-01-11T00:48:10.948Z,100889.10
2023-01-11T00:50:38.712Z,100885.25
2023-01-11T00:53:05.937Z,100886.38
2023-01-11T00:55:32.851Z,100892.52
2023-01-11T00:58:00.069Z,100892.77
2023-01-11T01:00:27.016Z,100891.72
2023-01-11T01:02:53.952Z,100891.05
2023-01-11T01:05:20.752Z,100892.64
2023-01-11T01:07:47.695Z,100897.52
2023-01-11T01:10:15.508Z,100897.12
2023-01-11T01:13:01.175Z,100905.81
2023-01-11T01:15:28.150Z,100910.02
2023-01-11T01:17:55.402Z,100909.02
2023-01-11T01:20:23.281Z,100907.96
2023-01-11T01:22:50.522Z,100908.86
2023-01-11T01:25:17.708Z,100915.84
2023-01-11T01:27:44.564Z,100912.20
2023-01-11T01:30:12.356Z,100908.20
2023-01-11T01:32:39.932Z,100903.61
2023-01-11T01:35:07.265Z,100914.19
2023-01-11T01:37:34.326Z,100896.72
2023-01-11T01:40:01.122Z,100905.05
2023-01-11T01:42:28.335Z,100906.81
2023-01-11T01:45:00.917Z,100908.14
2023-01-11T01:47:32.859Z,100901.79
2023-01-11T01:50:02.496Z,100902.21
2023-01-11T01:52:29.773Z,100909.52
2023-01-11T01:54:59.282Z,100899.32
2023-01-11T01:57:28.080Z,100908.39
2023-01-11T01:59:55.809Z,100906.80
2023-01-11T02:02:24.392Z,100910.30
2023-01-11T02:04:51.295Z,100915.58
2023-01-11T02:07:23.055Z,100915.39
2023-01-11T02:10:05.510Z,100917.87
2023-01-11T02:12:39.470Z,100915.01
2023-01-11T02:15:08.909Z,100918.89
2023-01-11T02:17:35.926Z,100917.27
2023-01-11T02:20:13.187Z,100921.81
2023-01-11T02:22:52.554Z,100928.09
2023-01-11T02:25:41.031Z,100931.89
2023-01-11T02:28:17.055Z,100935.03
2023-01-11T02:30:59.739Z,100932.14
2023-01-11T02:33:36.443Z,100921.87
2023-01-11T02:46:23.860Z,100911.28
2023-01-11T02:49:00.182Z,100922.98
2023-01-11T02:52:09.472Z,100915.13
2023-01-11T02:54:36.465Z,100914.48
2023-01-11T02:57:03.453Z,100919.59
2023-01-11T02:59:32.045Z,100922.76
2023-01-11T03:01:59.862Z,100912.45
2023-01-11T03:04:31.819Z,100915.03
2023-01-11T03:07:12.161Z,100915.34
2023-01-11T03:09:45.902Z,100928.21
2023-01-11T03:12:47.716Z,100922.36
2023-01-11T03:15:56.033Z,100925.77
2023-01-11T03:18:31.944Z,100938.85
2023-01-11T03:21:26.692Z,100943.26
2023-01-11T03:24:12.295Z,100947.19
2023-01-11T03:26:49.999Z,100948.17
2023-01-11T03:29:20.941Z,100962.05
2023-01-11T03:32:12.974Z,100964.70
2023-01-11T03:34:52.172Z,100966.91
2023-01-11T03:37:27.295Z,100971.81
2023-01-11T03:40:04.589Z,100961.58
2023-01-11T03:42:33.416Z,100964.29
2023-01-11T03:45:00.935Z,100962.50
2023-01-11T03:47:29.460Z,100963.28
2023-01-11T03:50:07.843Z,100971.27
2023-01-11T03:52:36.620Z,100968.75
2023-01-11T03:55:04.699Z,100967.23
2023-01-11T03:57:34.004Z,100967.59
2023-01-11T04:00:01.019Z,100973.66
2023-01-11T04:02:29.188Z,100972.42
2023-01-11T04:04:56.228Z,100968.51
2023-01-11T04:07:23.105Z,100960.67
2023-01-11T04:09:49.994Z,100965.52
2023-01-11T04:12:18.980Z,100966.52
2023-01-11T04:14:45.872Z,100960.08
2023-01-11T04:17:12.689Z,100962.17
2023-01-11T04:19:40.165Z,100967.02
2023-01-11T04:22:07.491Z,100971.53
2023-01-11T04:24:34.433Z,100971.12
2023-01-11T04:27:01.485Z,100969.40
2023-01-11T04:29:29.693Z,100967.57
2023-01-11T04:31:56.605Z,100972.52
2023-01-11T04:34:23.534Z,100977.59
2023-01-11T04:36:50.448Z,100991.96
2023-01-11T04:39:17.609Z,100991.53
2023-01-11T04:42:03.143Z,100994.68
2023-01-11T04:44:29.997Z,100991.30
2023-01-11T04:46:56.967Z,100995.80
2023-01-11T04:49:23.912Z,100989.27
2023-01-11T04:51:50.882Z,100988.84
2023-01-11T04:54:17.827Z,100990.70
2023-01-11T04:56:44.668Z,100995.23
2023-01-11T04:59:11.666Z,101003.72
2023-01-11T05:01:38.495Z,101007.18
2023-01-11T05:04:05.265Z,101003.77
2023-01-11T05:06:32.949Z,101002.78
2023-01-11T05:09:00.469Z,101003.23
2023-01-11T05:11:27.319Z,101003.08
2023-01-11T05:13:54.278Z,101003.23
2023-01-11T05:16:23.946Z,100996.23
2023-01-11T05:18:52.615Z,100995.46
2023-01-11T05:21:24.058Z,100994.27
2023-01-11T05:23:50.925Z,101000.70
2023-01-11T05:26:18.924Z,101008.13
2023-01-11T05:28:46.338Z,101005.30
2023-01-11T05:31:13.820Z,101013.12
2023-01-11T05:33:40.875Z,101016.84
2023-01-11T05:36:13.467Z,101015.97
2023-01-11T05:38:40.364Z,101017.88
2023-01-11T05:41:09.153Z,101022.06
2023-01-11T05:43:56.664Z,101024.58
2023-01-11T05:46:23.723Z,101034.09
2023-01-11T05:48:50.712Z,101032.67
2023-01-11T05:51:17.601Z,101023.36
2023-01-11T05:53:44.990Z,101026.89
2023-01-11T05:56:11.792Z,101025.23
2023-01-11T05:58:38.629Z,101027.16
2023-01-11T06:01:05.649Z,101016.78
2023-01-11T06:03:32.584Z,101020.23
2023-01-11T06:05:59.607Z,101025.27
2023-01-11T06:08:26.902Z,101025.71
2023-01-11T06:10:55.308Z,101025.95
2023-01-11T06:13:32.784Z,101033.42
2023-01-11T06:16:03.221Z,101043.69
2023-01-11T06:18:31.497Z,101039.65
2023-01-11T06:21:46.741Z,101031.11
2023-01-11T06:24:14.115Z,101028.05
2023-01-11T06:26:40.847Z,101027.35
2023-01-11T06:29:07.665Z,101020.79
2023-01-11T06:31:35.672Z,101022.58
2023-01-11T06:34:02.472Z,101024.45
2023-01-11T06:36:29.915Z,101023.73
2023-01-11T06:38:56.772Z,101022.02
2023-01-11T06:41:23.519Z,101027.87
2023-01-11T06:43:50.486Z,101033.15
2023-01-11T06:46:19.017Z,101035.04
2023-01-11T06:48:46.124Z,101044.14
2023-01-11T06:51:14.271Z,101048.03
2023-01-11T06:53:41.754Z,101042.17
2023-01-11T06:56:11.193Z,101044.36
2023-01-11T06:58:38.486Z,101047.32
2023-01-11T07:01:05.750Z,101045.33
2023-01-11T07:03:32.839Z,101043.89
2023-01-11T07:05:59.644Z,101042.92
2023-01-11T07:08:26.585Z,101035.29
2023-01-11T07:10:53.534Z,101041.48
2023-01-11T07:13:20.405Z,101039.10
2023-01-11T07:15:54.224Z,101032.73
2023-01-11T07:18:21.737Z,101036.86
2023-01-11T07:20:48.537Z,101035.89
2023-01-11T07:23:15.351Z,101030.16
2023-01-11T07:25:42.144Z,101027.70
2023-01-11T07:28:09.626Z,101028.54
2023-01-11T07:30:52.192Z,101041.23
2023-01-11T07:33:23.982Z,101037.80
2023-01-11T07:35:50.738Z,101044.55
2023-01-11T07:38:17.641Z,101044.91
2023-01-11T07:40:44.555Z,101048.39
2023-01-11T07:43:14.623Z,101047.66
2023-01-11T07:45:46.498Z,101059.59
2023-01-11T07:48:14.001Z,101054.88
2023-01-11T07:50:42.821Z,101058.55
2023-01-11T07:53:11.156Z,101061.03
2023-01-11T07:55:39.893Z,101057.76
2023-01-11T07:58:07.898Z,101063.69
2023-01-11T08:00:34.677Z,101079.77
2023-01-11T08:03:02.284Z,101101.33
2023-01-11T08:05:29.779Z,101096.80
2023-01-11T08:07:56.578Z,101091.96
2023-01-11T08:10:24.105Z,101085.58
2023-01-11T08:13:09.946Z,101082.51
2023-01-11T08:15:36.861Z,101079.86
2023-01-11T08:18:04.944Z,101063.27
2023-01-11T08:20:32.106Z,101069.95
2023-01-11T08:23:02.303Z,101080.48
2023-01-11T08:25:29.138Z,101086.92
2023-01-11T08:27:56.201Z,101082.50
2023-01-11T08:30:23.179Z,101074.52
2023-01-11T08:32:50.105Z,101063.48
2023-01-11T08:35:18.642Z,101063.40
2023-01-11T08:37:45.633Z,101055.52
2023-01-11T08:40:13.466Z,101057.05
2023-01-11T08:42:40.725Z,101046.38
2023-01-11T08:45:10.767Z,101044.31
2023-01-11T08:47:37.893Z,101052.96
2023-01-11T08:50:05.893Z,101057.11
2023-01-11T08:52:32.751Z,101052.23
2023-01-11T08:54:59.624Z,101062.73
2023-01-11T08:57:26.503Z,101064.30
2023-01-11T08:59:54.948Z,101057.25
2023-01-11T09:02:21.735Z,101061.27
2023-01-11T09:04:48.548Z,101069.93
2023-01-11T09:07:15.441Z,101061.13
2023-01-11T09:09:42.245Z,101050.15
2023-01-11T09:12:09.394Z,101060.95
2023-01-11T09:14:36.231Z,101047.59
2023-01-11T09:17:03.400Z,101043.52
2023-01-11T09:19:30.430Z,101044.13
2023-01-11T09:21:58.437Z,101047.33
2023-01-11T09:24:25.530Z,101052.14
2023-01-11T09:26:53.362Z,101055.88
2023-01-11T09:29:20.431Z,101041.92
2023-01-11T09:31:47.459Z,101043.10
2023-01-11T09:34:14.608Z,101050.52
2023-01-11T09:36:41.556Z,101049.75
2023-01-11T09:39:11.762Z,101055.46
2023-01-11T09:41:48.195Z,101049.30
2023-01-11T09:44:19.103Z,101042.35
2023-01-11T09:46:50.655Z,101035.96
2023-01-11T09:49:20.350Z,101026.26
2023-01-11T09:51:48.357Z,101024.85
2023-01-11T09:54:19.193Z,101015.80
2023-01-11T09:56:54.949Z,101005.40
2023-01-11T09:59:29.847Z,101013.90
2023-01-11T10:02:08.047Z,101011.73
2023-01-11T10:04:56.821Z,101011.40
2023-01-11T10:07:43.673Z,101005.46
2023-01-11T10:18:38.573Z,100980.45
2023-01-11T10:19:37.358Z,100983.28
2023-01-11T10:22:31.881Z,100975.33
2023-01-11T10:25:01.610Z,100968.39
2023-01-11T10:27:40.886Z,100964.20
2023-01-11T10:30:49.454Z,100963.90
2023-01-11T10:33:29.282Z,100968.41
2023-01-11T10:36:36.891Z,100969.35
2023-01-11T10:39:51.255Z,100965.75
2023-01-11T10:42:26.392Z,100958.95
2023-01-11T10:45:12.510Z,100962.44
2023-01-11T10:47:55.548Z,100959.70
2023-01-11T10:50:32.081Z,100951.59
2023-01-11T10:53:06.317Z,100950.27
2023-01-11T10:55:41.738Z,100942.52
2023-01-11T10:58:53.907Z,100941.16
2023-01-11T11:01:40.734Z,100941.98
2023-01-11T11:04:20.006Z,100953.20
2023-01-11T11:06:53.727Z,100952.92
2023-01-11T11:09:46.988Z,100946.23
2023-01-11T11:12:22.753Z,100943.26
2023-01-11T11:15:02.551Z,100946.81
2023-01-11T11:17:35.144Z,100945.60
2023-01-11T11:20:15.123Z,100948.06
2023-01-11T11:22:42.266Z,100943.73
2023-01-11T11:25:27.514Z,100939.77
2023-01-11T11:28:07.502Z,100937.60
2023-01-11T11:30:45.433Z,100937.37
2023-01-11T11:33:37.367Z,100943.16
2023-01-11T11:36:09.564Z,100942.56
2023-01-11T11:38:42.283Z,100946.83
2023-01-11T11:41:14.211Z,100942.54
2023-01-11T11:43:42.335Z,100930.48
2023-01-11T11:46:22.812Z,100930.10
2023-01-11T11:49:13.373Z,100936.75
2023-01-11T11:51:40.315Z,100934.17
2023-01-11T11:54:07.244Z,100935.94
2023-01-11T11:56:34.873Z,100933.78
2023-01-11T11:59:09.747Z,100935.45
2023-01-11T12:01:39.696Z,100947.20
2023-01-11T12:04:18.162Z,100950.66
2023-01-11T12:07:12.552Z,100953.97
2023-01-11T12:09:43.739Z,100947.52
2023-01-11T12:12:18.818Z,100940.62
2023-01-11T12:15:24.149Z,100944.23
2023-01-11T12:17:51.178Z,100939.30
2023-01-11T12:20:24.158Z,100940.35
2023-01-11T12:23:08.180Z,100934.02
2023-01-11T12:25:37.372Z,100927.80
2023-01-11T12:28:14.195Z,100931.30
2023-01-11T12:31:04.708Z,100933.86
2023-01-11T12:34:04.342Z,100942.09
2023-01-11T12:36:46.615Z,100938.92
2023-01-11T12:39:30.891Z,100938.30
2023-01-11T12:42:04.115Z,100946.74
2023-01-11T12:44:52.585Z,100942.77
2023-01-11T12:47:42.235Z,100932.30
2023-01-11T12:50:56.034Z,100940.45
2023-01-11T12:53:47.472Z,100935.21
2023-01-11T12:56:33.835Z,100927.50
2023-01-11T12:59:05.654Z,100935.73
2023-01-11T13:01:54.371Z,100937.02
2023-01-11T13:04:38.620Z,100934.82
2023-01-11T13:07:15.478Z,100929.16
2023-01-11T13:10:02.156Z,100928.30
2023-01-11T13:12:35.855Z,100927.15
2023-01-11T13:15:24.501Z,100922.61
2023-01-11T13:18:14.675Z,100925.84
2023-01-11T13:21:01.295Z,100922.45
2023-01-11T13:23:42.003Z,100928.80
2023-01-11T13:26:11.913Z,100940.48
2023-01-11T13:28:40.137Z,100945.69
2023-01-11T13:31:07.988Z,100955.20
2023-01-11T13:33:34.810Z,100963.60
2023-01-11T13:36:22.585Z,100963.83
2023-01-11T13:38:53.585Z,100969.16
2023-01-11T13:41:22.571Z,100965.15
2023-01-11T13:43:58.569Z,100961.92
2023-01-11T13:46:31.608Z,100954.50
2023-01-11T13:49:13.422Z,100961.11
2023-01-11T13:52:09.500Z,100962.52
2023-01-11T13:54:47.402Z,100967.70
2023-01-11T13:57:23.622Z,100969.96
2023-01-11T13:59:53.174Z,100977.09
2023-01-11T14:02:40.597Z,100971.84
2023-01-11T14:05:13.218Z,100972.98
2023-01-11T14:07:56.049Z,100978.68
2023-01-11T14:11:01.970Z,100978.95
2023-01-11T14:14:13.585Z,100973.89
2023-01-11T14:17:00.714Z,100979.17
2023-01-11T14:19:46.650Z,100981.52
2023-01-11T14:22:18.858Z,100984.34
2023-01-11T14:25:09.656Z,100986.77
2023-01-11T14:28:17.695Z,100983.05
2023-01-11T14:31:15.490Z,100979.84
2023-01-11T14:34:01.346Z,100986.31
2023-01-11T14:36:42.820Z,100989.33
2023-01-11T14:39:32.783Z,100988.16
2023-01-11T14:42:31.917Z,100986.54
2023-01-11T14:45:14.315Z,100986.77
2023-01-11T14:47:53.262Z,100986.65
2023-01-11T14:50:27.600Z,100990.78
2023-01-11T14:52:57.381Z,100990.30
2023-01-11T14:55:28.090Z,100985.52
2023-01-11T14:57:56.080Z,100983.14
2023-01-11T15:00:22.946Z,100992.14
2023-01-11T15:03:05.198Z,101003.36
2023-01-11T15:05:32.872Z,101003.85
2023-01-11T15:08:15.278Z,101006.70
2023-01-11T15:10:51.459Z,101008.51
2023-01-11T15:13:39.947Z,101007.56
2023-01-11T15:16:37.368Z,101007.30
2023-01-11T15:19:06.107Z,101001.20
2023-01-11T15:21:32.932Z,101003.13
2023-01-11T15:23:59.719Z,101011.27
2023-01-11T15:26:26.743Z,101012.16
2023-01-11T15:28:58.285Z,101006.75
2023-01-11T15:31:36.959Z,101005.98
2023-01-11T15:34:25.380Z,101006.54
2023-01-11T15:37:05.532Z,101012.38
2023-01-11T15:39:44.478Z,100995.69
2023-01-11T15:42:17.238Z,101003.51
2023-01-11T15:45:02.507Z,101001.98
2023-01-11T15:48:06.894Z,100995.11
2023-01-11T15:50:43.988Z,100983.02
2023-01-11T15:53:49.174Z,100983.00
2023-01-11T15:56:18.971Z,100981.26
2023-01-11T15:59:13.196Z,100978.57
2023-01-11T16:02:14.774Z,100976.20
2023-01-11T16:05:16.555Z,100971.63
2023-01-11T16:07:59.920Z,100972.42
2023-01-11T16:10:42.881Z,100977.28
2023-01-11T16:13:30.539Z,100980.05
2023-01-11T16:16:31.181Z,100983.70
2023-01-11T16:19:08.648Z,100971.63
2023-01-11T16:21:47.561Z,100985.70
2023-01-11T16:24:27.668Z,100984.55
2023-01-11T16:27:02.288Z,100991.30
2023-01-11T16:29:31.083Z,101000.09
2023-01-11T16:32:06.180Z,100993.21
2023-01-11T16:34:47.202Z,100993.33
2023-01-11T16:37:28.713Z,100991.70
2023-01-11T16:40:09.109Z,100989.65
2023-01-11T16:42:41.758Z,100997.31
2023-01-11T16:45:13.967Z,100995.64
2023-01-11T16:47:41.434Z,100991.73
2023-01-11T16:50:14.337Z,100994.36
2023-01-11T16:52:45.544Z,101003.07
2023-01-11T16:55:37.901Z,100999.85
2023-01-11T16:58:22.630Z,101000.60
2023-01-11T17:01:00.077Z,101000.51
2023-01-11T17:03:31.759Z,100986.67
2023-01-11T17:06:09.975Z,100986.34
2023-01-11T17:08:41.715Z,100989.13
2023-01-11T17:11:35.337Z,100995.17
2023-01-11T17:14:11.255Z,100987.52
2023-01-11T17:16:41.750Z,100988.00
2023-01-11T17:19:28.992Z,100984.34
2023-01-11T17:22:24.032Z,100977.27
2023-01-11T17:25:04.720Z,100980.17
2023-01-11T17:27:42.519Z,100973.50
2023-01-11T17:30:21.760Z,100969.38
2023-01-11T17:32:49.755Z,100971.61
2023-01-11T17:35:27.287Z,100970.61
2023-01-11T17:38:00.047Z,100973.15
2023-01-11T17:40:30.860Z,100970.42
2023-01-11T17:43:23.791Z,100969.77
2023-01-11T17:46:02.473Z,100974.77
2023-01-11T17:48:29.604Z,100972.38
2023-01-11T17:51:01.715Z,100972.27
2023-01-11T17:53:35.614Z,100973.73
2023-01-11T17:56:07.471Z,100971.97
2023-01-11T17:58:37.970Z,100967.96
2023-01-11T18:01:05.083Z,100964.83
2023-01-11T18:03:51.262Z,100958.12
2023-01-11T18:06:40.215Z,100966.67
2023-01-11T18:09:26.583Z,100957.45
2023-01-11T18:11:54.157Z,100950.80
2023-01-11T18:14:29.873Z,100932.50
2023-01-11T18:17:06.429Z,100929.65
2023-01-11T18:19:41.529Z,100923.38
2023-01-11T18:22:30.620Z,100915.21
2023-01-11T18:25:00.709Z,100912.90
2023-01-11T18:27:39.748Z,100912.92
2023-01-11T18:30:11.685Z,100910.41
2023-01-11T18:32:41.726Z,100909.40
2023-01-11T18:35:18.910Z,100915.29
2023-01-11T18:40:01.602Z,100912.77
2023-01-11T18:42:31.040Z,100911.20
2023-01-11T18:45:06.722Z,100911.15
2023-01-11T18:47:33.826Z,100914.89
2023-01-11T18:50:00.658Z,100907.63
2023-01-11T18:52:28.039Z,100900.94
2023-01-11T18:54:56.095Z,100902.14
2023-01-11T18:57:24.417Z,100896.67
2023-01-11T18:59:54.840Z,100893.83
2023-01-11T19:02:26.178Z,100892.52
2023-01-11T19:04:54.870Z,100897.41
2023-01-11T19:07:21.930Z,100898.85
2023-01-11T19:09:49.219Z,100890.15
2023-01-11T19:12:16.349Z,100883.55
2023-01-11T19:14:43.349Z,100879.38
2023-01-11T19:17:10.605Z,100874.69
2023-01-11T19:19:37.495Z,100867.07
2023-01-11T19:22:04.772Z,100870.32
2023-01-11T19:24:32.034Z,100863.47
2023-01-11T19:26:59.223Z,100852.09
2023-01-11T19:29:26.335Z,100844.98
2023-01-11T19:31:53.518Z,100840.61
2023-01-11T19:34:20.544Z,100846.92
2023-01-11T19:36:48.931Z,100847.55
2023-01-11T19:39:15.913Z,100857.25
2023-01-11T19:41:55.042Z,100856.08
2023-01-11T19:44:23.188Z,100853.66
2023-01-11T19:46:57.068Z,100848.14
2023-01-11T19:49:36.597Z,100853.11
2023-01-11T19:52:03.800Z,100855.46
2023-01-11T19:54:30.586Z,100851.72
2023-01-11T19:56:57.589Z,100863.98
2023-01-11T19:59:24.488Z,100859.75
2023-01-11T20:01:51.267Z,100855.36
2023-01-11T20:04:18.098Z,100857.02
2023-01-11T20:06:55.349Z,100852.23
2023-01-11T20:09:22.478Z,100841.71
2023-01-11T20:11:49.632Z,100841.64
2023-01-11T20:14:16.952Z,100843.65
2023-01-11T20:16:43.941Z,100845.24
2023-01-11T20:19:11.281Z,100842.14
2023-01-11T20:21:38.345Z,100833.37
2023-01-11T20:24:05.691Z,100834.92
2023-01-11T20:26:34.330Z,100835.79
2023-01-11T20:29:02.290Z,100834.80
2023-01-11T20:31:31.927Z,100833.41
2023-01-11T20:34:00.301Z,100818.65
2023-01-11T20:36:27.406Z,100817.46
2023-01-11T20:38:54.978Z,100819.52
2023-01-11T20:41:42.134Z,100816.54
2023-01-11T20:44:09.007Z,100817.44
2023-01-11T20:46:38.104Z,100818.09
2023-01-11T20:49:05.671Z,100815.68
2023-01-11T20:51:32.504Z,100815.16
2023-01-11T20:53:59.650Z,100815.59
2023-01-11T20:56:26.787Z,100814.09
2023-01-11T20:58:56.410Z,100812.25
2023-01-11T21:01:26.671Z,100810.20
2023-01-11T21:04:05.226Z,100810.60
2023-01-11T21:06:32.951Z,100815.92
2023-01-11T21:09:00.772Z,100812.69
2023-01-11T21:11:28.348Z,100814.88
2023-01-11T21:16:24.659Z,100817.39
2023-01-11T21:18:56.398Z,100814.77
2023-01-11T21:21:23.503Z,100815.28
2023-01-11T21:23:55.191Z,100810.59
2023-01-11T21:26:23.040Z,100818.65
2023-01-11T21:28:52.721Z,100824.80
2023-01-11T21:31:23.410Z,100823.26
2023-01-11T21:33:53.436Z,100829.06
2023-01-11T21:36:24.128Z,100826.20
2023-01-11T21:38:51.615Z,100829.90
2023-01-11T21:41:40.151Z,100831.18
2023-01-11T21:44:08.755Z,100831.28
2023-01-11T21:46:35.835Z,100835.52
2023-01-11T21:49:02.966Z,100830.14
2023-01-11T21:51:32.664Z,100827.64
2023-01-11T21:53:59.487Z,100828.14
2023-01-11T21:56:26.430Z,100823.70
2023-01-11T21:58:53.597Z,100814.07
2023-01-11T22:01:23.966Z,100811.27
2023-01-11T22:03:50.948Z,100811.05
2023-01-11T22:06:18.240Z,100804.97
2023-01-11T22:08:46.137Z,100808.18
2023-01-11T22:11:16.468Z,100815.69
2023-01-11T22:13:43.440Z,100814.21
2023-01-11T22:16:15.147Z,100815.02
2023-01-11T22:18:42.657Z,100816.07
2023-01-11T22:21:11.783Z,100812.60
2023-01-11T22:23:39.158Z,100821.40
2023-01-11T22:26:07.804Z,100819.40
2023-01-11T22:28:57.484Z,100815.00
2023-01-11T22:31:25.701Z,100819.73
2023-01-11T22:33:52.504Z,100823.94
2023-01-11T22:36:19.506Z,100827.45
2023-01-11T22:38:47.275Z,100828.96
2023-01-11T22:41:15.228Z,100818.27
2023-01-11T22:43:43.325Z,100818.64
2023-01-11T22:46:30.841Z,100813.08
2023-01-11T22:48:59.092Z,100804.20
2023-01-11T22:51:26.906Z,100807.06
2023-01-11T22:53:54.404Z,100801.64
2023-01-11T22:56:25.800Z,100792.26
2023-01-11T22:58:53.482Z,100786.37
2023-01-11T23:01:21.403Z,100781.11
2023-01-11T23:03:48.714Z,100777.77
2023-01-11T23:06:17.328Z,100777.73
2023-01-11T23:08:44.408Z,100773.82
2023-01-11T23:11:32.385Z,100769.05
2023-01-11T23:14:02.164Z,100772.42
2023-01-11T23:16:29.187Z,100785.41
2023-01-11T23:18:56.336Z,100789.82
2023-01-11T23:21:23.893Z,100780.30
2023-01-11T23:23:50.849Z,100777.14
2023-01-11T23:26:18.194Z,100776.75
2023-01-11T23:28:46.119Z,100787.39
2023-01-11T23:31:18.339Z,100778.77
2023-01-11T23:33:49.657Z,100775.96
2023-01-11T23:36:17.350Z,100777.73
2023-01-11T23:38:44.797Z,100774.84
2023-01-11T23:41:35.906Z,100778.66
2023-01-11T23:44:04.985Z,100775.81
2023-01-11T23:46:51.163Z,100777.13
2023-01-11T23:49:18.049Z,100777.40
2023-01-11T23:51:45.390Z,100783.85
2023-01-11T23:54:12.429Z,100780.39
2023-01-11T23:56:39.523Z,100778.39
2023-01-11T23:59:06.941Z,100779.25
